Time;durP1;ratioP1;P1;durP2;ratioP2;P2;SDS_P1;SDS_P2;PMS_P1;PMS_P2;Temp;Humidity;BMP_temperature;BMP_pressure;BME280_temperature;BME280_humidity;BME280_pressure;Samples;Min_cycle;Max_cycle;Signal;HPM_P1;HPM_P2
2023/04/23 00:01:26;;;;;;;34.78;20.30;;;8.00;99.90;;;;;;5037810;28;20049;-56
2023/04/23 00:03:55;;;;;;;31.27;22.65;;;8.00;99.90;;;;;;5019997;28;20060;-56
2023/04/23 00:06:22;;;;;;;36.30;23.85;;;7.90;99.90;;;;;;5037840;28;20041;-56
2023/04/23 00:08:51;;;;;;;36.13;23.15;;;8.10;99.90;;;;;;5037585;28;20378;-56
2023/04/23 00:11:17;;;;;;;33.95;23.33;;;7.90;99.90;;;;;;5037847;28;20124;-57
2023/04/23 00:13:43;;;;;;;35.30;22.33;;;8.10;99.90;;;;;;5037295;28;20471;-56
2023/04/23 00:16:09;;;;;;;39.15;24.83;;;7.90;99.90;;;;;;5037568;28;20093;-56
2023/04/23 00:18:35;;;;;;;36.53;23.80;;;7.90;99.90;;;;;;5038058;28;20053;-57
2023/04/23 00:21:01;;;;;;;43.15;25.25;;;8.20;99.90;;;;;;5037721;28;20099;-57
2023/04/23 00:23:27;;;;;;;43.20;26.38;;;8.10;99.90;;;;;;5037640;28;20064;-57
2023/04/23 00:25:53;;;;;;;43.67;25.58;;;8.00;99.90;;;;;;5037639;28;20097;-57
2023/04/23 00:28:19;;;;;;;38.22;23.40;;;8.00;99.90;;;;;;5037637;28;20072;-57
2023/04/23 00:30:45;;;;;;;34.60;22.90;;;8.10;99.90;;;;;;5037409;28;20109;-56
2023/04/23 00:33:11;;;;;;;41.63;24.83;;;8.10;99.90;;;;;;5037622;28;20041;-56
2023/04/23 00:35:36;;;;;;;49.90;24.15;;;8.10;99.90;;;;;;5037453;28;20116;-56
2023/04/23 00:38:02;;;;;;;53.78;24.10;;;8.10;99.90;;;;;;5037379;28;20049;-56
2023/04/23 00:40:28;;;;;;;61.85;24.13;;;7.90;99.90;;;;;;5037635;28;20433;-57
2023/04/23 00:42:55;;;;;;;40.83;21.20;;;7.90;99.90;;;;;;5037412;28;20045;-57
2023/04/23 00:45:21;;;;;;;46.03;21.85;;;7.90;99.90;;;;;;5019105;28;20029;-57
2023/04/23 00:47:48;;;;;;;42.42;22.92;;;7.70;99.90;;;;;;5037172;28;20112;-56
2023/04/23 00:50:14;;;;;;;55.05;23.05;;;7.70;99.90;;;;;;5037360;28;20041;-57
2023/04/23 00:52:40;;;;;;;71.97;23.40;;;7.60;99.90;;;;;;5036750;28;20041;-57
2023/04/23 00:55:07;;;;;;;56.28;23.50;;;7.50;99.90;;;;;;5036893;28;20041;-57
2023/04/23 00:57:36;;;;;;;54.53;24.90;;;7.50;99.90;;;;;;5036521;28;20037;-57
2023/04/23 01:00:04;;;;;;;44.70;25.02;;;7.50;99.90;;;;;;5036939;28;20132;-56
2023/04/23 01:02:30;;;;;;;39.40;25.40;;;7.70;99.90;;;;;;5036290;28;20076;-57
2023/04/23 01:04:59;;;;;;;63.20;25.50;;;7.70;99.90;;;;;;5002795;28;20050;-56
2023/04/23 01:07:25;;;;;;;37.35;24.65;;;7.50;99.90;;;;;;5036283;28;20049;-56
2023/04/23 01:09:52;;;;;;;58.05;26.92;;;7.70;99.90;;;;;;5036920;28;20057;-54
2023/04/23 01:12:17;;;;;;;53.05;27.88;;;7.80;99.90;;;;;;5040106;28;20037;-57
2023/04/23 01:14:43;;;;;;;52.78;26.30;;;7.80;99.90;;;;;;5041081;28;20453;-57
2023/04/23 01:17:11;;;;;;;45.53;27.25;;;7.70;99.90;;;;;;5039914;28;20076;-57
2023/04/23 01:19:37;;;;;;;75.18;29.52;;;7.60;99.90;;;;;;5040408;28;20049;-56
2023/04/23 01:22:08;;;;;;;46.33;27.50;;;7.60;99.90;;;;;;5023009;28;20049;-56
2023/04/23 01:24:35;;;;;;;60.40;28.45;;;7.60;99.90;;;;;;5040845;28;20042;-57
2023/04/23 01:27:01;;;;;;;61.20;29.42;;;7.90;99.90;;;;;;5040349;28;20430;-57
2023/04/23 01:29:27;;;;;;;49.20;29.30;;;7.70;99.90;;;;;;5040507;28;20068;-57
2023/04/23 01:31:53;;;;;;;40.72;25.35;;;7.80;99.90;;;;;;5040670;28;20049;-57
2023/04/23 01:34:20;;;;;;;51.58;29.23;;;7.90;99.90;;;;;;5040477;28;20427;-57
2023/04/23 01:36:47;;;;;;;46.85;26.17;;;7.70;99.90;;;;;;5040877;28;20045;-57
2023/04/23 01:39:13;;;;;;;47.10;28.17;;;7.80;99.90;;;;;;5022771;28;20100;-57
2023/04/23 01:41:39;;;;;;;47.47;27.88;;;7.90;99.90;;;;;;5040714;28;20037;-56
2023/04/23 01:44:05;;;;;;;44.67;27.85;;;7.90;99.90;;;;;;5040664;28;20042;-57
2023/04/23 01:46:31;;;;;;;47.00;26.95;;;7.70;99.90;;;;;;5040429;28;20949;-57
2023/04/23 01:48:56;;;;;;;44.13;26.15;;;7.80;99.90;;;;;;5040271;28;20081;-56
2023/04/23 01:51:24;;;;;;;42.50;25.63;;;7.90;99.90;;;;;;5040004;28;20405;-57
2023/04/23 01:53:50;;;;;;;45.38;26.15;;;7.60;99.90;;;;;;5040621;28;20108;-57
2023/04/23 01:56:18;;;;;;;47.30;26.90;;;7.60;99.90;;;;;;5039557;28;20103;-54
2023/04/23 01:58:44;;;;;;;42.55;25.67;;;7.90;99.90;;;;;;5039939;28;20053;-57
2023/04/23 02:01:10;;;;;;;43.95;27.42;;;7.60;99.90;;;;;;5026433;28;20077;-57
2023/04/23 02:03:36;;;;;;;44.38;26.15;;;7.60;99.90;;;;;;5039953;28;20046;-56
2023/04/23 02:06:03;;;;;;;43.92;26.13;;;7.80;99.90;;;;;;5040202;28;20095;-57
2023/04/23 02:08:29;;;;;;;45.47;27.48;;;7.70;99.90;;;;;;5039503;28;20054;-57
2023/04/23 02:10:56;;;;;;;44.35;27.60;;;7.60;99.90;;;;;;5040291;28;20052;-56
2023/04/23 02:13:22;;;;;;;50.35;29.27;;;7.50;99.90;;;;;;5039809;28;20045;-57
2023/04/23 02:15:48;;;;;;;50.60;29.13;;;7.50;99.90;;;;;;5039780;28;20073;-58
2023/04/23 02:18:13;;;;;;;48.67;28.45;;;7.50;99.90;;;;;;5036818;28;20051;-55
2023/04/23 02:20:40;;;;;;;53.10;30.90;;;7.70;99.90;;;;;;5030540;28;20050;-56
2023/04/23 02:23:09;;;;;;;49.20;28.45;;;7.50;99.90;;;;;;5026678;28;20411;-56
2023/04/23 02:25:38;;;;;;;52.97;31.02;;;7.40;99.90;;;;;;5019928;28;20053;-56
2023/04/23 02:28:06;;;;;;;51.70;30.48;;;7.60;99.90;;;;;;5019823;28;20126;-56
2023/04/23 02:30:35;;;;;;;52.58;30.67;;;7.40;99.90;;;;;;5021261;28;20121;-56
2023/04/23 02:33:02;;;;;;;56.90;31.52;;;7.50;99.90;;;;;;5039497;28;20525;-56
2023/04/23 02:35:28;;;;;;;53.67;31.10;;;7.50;99.90;;;;;;5039820;28;20050;-57
2023/04/23 02:37:55;;;;;;;52.20;29.63;;;7.40;99.90;;;;;;5038014;28;20057;-56
2023/04/23 02:40:20;;;;;;;55.25;31.30;;;7.40;99.90;;;;;;5021708;28;20053;-57
2023/04/23 02:42:46;;;;;;;55.35;32.33;;;7.30;99.90;;;;;;5039053;28;20073;-57
2023/04/23 02:45:12;;;;;;;54.97;31.60;;;7.60;99.90;;;;;;5039580;28;20033;-56
2023/04/23 02:47:38;;;;;;;56.45;32.13;;;7.40;99.90;;;;;;5031074;28;20101;-56
2023/04/23 02:50:05;;;;;;;54.33;30.90;;;7.40;99.90;;;;;;5026732;28;20050;-56
2023/04/23 02:52:31;;;;;;;56.67;32.38;;;7.20;99.90;;;;;;5029638;28;20123;-57
2023/04/23 02:54:59;;;;;;;60.63;33.42;;;7.20;99.90;;;;;;5034249;28;20440;-56
2023/04/23 02:57:24;;;;;;;58.80;33.30;;;7.10;99.90;;;;;;5038828;28;20056;-56
2023/04/23 02:59:50;;;;;;;59.00;33.55;;;7.10;99.90;;;;;;5039238;28;20049;-56
2023/04/23 03:02:16;;;;;;;59.78;33.13;;;7.20;99.90;;;;;;5039274;28;20075;-56
2023/04/23 03:04:41;;;;;;;62.33;34.30;;;7.40;99.90;;;;;;5038930;28;20056;-57
2023/04/23 03:07:07;;;;;;;70.82;37.63;;;7.30;99.90;;;;;;5021188;28;20105;-56
2023/04/23 03:09:33;;;;;;;64.75;37.55;;;7.20;99.90;;;;;;5038868;28;20417;-56
2023/04/23 03:11:58;;;;;;;68.18;36.70;;;7.30;99.90;;;;;;5029968;28;20045;-56
2023/04/23 03:14:24;;;;;;;82.53;42.17;;;7.40;99.90;;;;;;5020629;28;20069;-56
2023/04/23 03:16:50;;;;;;;80.57;42.05;;;7.40;99.90;;;;;;5038792;28;20520;-56
2023/04/23 03:19:16;;;;;;;79.75;41.08;;;7.30;99.90;;;;;;5038696;28;20057;-57
2023/04/23 03:21:41;;;;;;;141.00;46.22;;;7.50;99.90;;;;;;5038843;28;20092;-56
2023/04/23 03:24:07;;;;;;;112.30;44.28;;;7.30;99.90;;;;;;5020983;28;20056;-56
2023/04/23 03:26:33;;;;;;;98.22;44.63;;;7.20;99.90;;;;;;5035546;28;20049;-56
2023/04/23 03:28:59;;;;;;;161.63;50.50;;;7.30;99.90;;;;;;5038716;28;20145;-56
2023/04/23 03:31:25;;;;;;;134.50;47.78;;;7.40;99.90;;;;;;5038531;28;20053;-57
2023/04/23 03:33:50;;;;;;;104.55;47.80;;;7.60;99.90;;;;;;5038159;28;20053;-56
2023/04/23 03:36:17;;;;;;;92.43;45.10;;;7.50;99.90;;;;;;5038536;28;20053;-56
2023/04/23 03:38:42;;;;;;;93.95;44.97;;;7.40;99.90;;;;;;5033716;28;20112;-56
2023/04/23 03:41:08;;;;;;;98.38;45.63;;;7.60;99.90;;;;;;5028317;28;20383;-57
2023/04/23 03:43:34;;;;;;;107.65;46.10;;;7.30;99.90;;;;;;5024381;28;20486;-56
2023/04/23 03:45:59;;;;;;;125.47;48.72;;;7.30;99.90;;;;;;5035465;28;20045;-56
2023/04/23 03:48:25;;;;;;;98.75;46.35;;;7.40;99.90;;;;;;5026386;28;20045;-56
2023/04/23 03:50:51;;;;;;;98.65;45.50;;;7.50;99.90;;;;;;5036989;28;20513;-56
2023/04/23 03:53:17;;;;;;;109.68;46.97;;;7.30;99.90;;;;;;5038135;28;20041;-56
2023/04/23 03:55:43;;;;;;;100.63;47.63;;;7.30;99.90;;;;;;5037768;28;20050;-57
2023/04/23 03:58:08;;;;;;;132.85;52.78;;;7.50;99.90;;;;;;5038176;28;20041;-57
2023/04/23 04:00:34;;;;;;;109.15;48.17;;;7.50;99.90;;;;;;5038067;28;20563;-55
2023/04/23 04:03:00;;;;;;;104.68;50.15;;;7.50;99.90;;;;;;5038163;28;20142;-56
2023/04/23 04:05:27;;;;;;;110.80;49.42;;;7.50;99.90;;;;;;5037970;28;20084;-56
2023/04/23 04:07:53;;;;;;;102.72;47.65;;;7.60;99.90;;;;;;5037779;28;20045;-57
2023/04/23 04:10:19;;;;;;;114.90;49.47;;;7.40;99.90;;;;;;5037492;28;20049;-56
2023/04/23 04:12:46;;;;;;;100.55;48.33;;;7.50;99.90;;;;;;5037779;28;20106;-57
2023/04/23 04:15:12;;;;;;;106.70;48.88;;;7.70;99.90;;;;;;5028897;28;20053;-57
2023/04/23 04:17:38;;;;;;;94.65;47.83;;;7.50;99.90;;;;;;5018653;28;20053;-56
2023/04/23 04:20:07;;;;;;;107.50;50.47;;;7.40;99.90;;;;;;5037459;28;20041;-56
2023/04/23 04:22:33;;;;;;;93.97;46.63;;;7.50;99.90;;;;;;5037862;28;20065;-55
2023/04/23 04:24:58;;;;;;;89.55;44.65;;;7.50;99.90;;;;;;5037240;28;20060;-56
2023/04/23 04:27:24;;;;;;;100.82;47.05;;;7.80;99.90;;;;;;5037596;28;20099;-56
2023/04/23 04:29:50;;;;;;;108.40;48.03;;;7.70;99.90;;;;;;5037325;28;20056;-56
2023/04/23 04:32:16;;;;;;;93.65;47.03;;;7.90;99.90;;;;;;5037674;28;20041;-56
2023/04/23 04:34:42;;;;;;;98.65;48.05;;;7.60;99.90;;;;;;5037468;28;20126;-56
2023/04/23 04:37:10;;;;;;;98.43;48.00;;;7.90;99.90;;;;;;5037252;28;20038;-56
2023/04/23 04:39:36;;;;;;;94.45;44.53;;;7.80;99.90;;;;;;5002743;28;20051;-56
2023/04/23 04:42:05;;;;;;;100.35;49.97;;;7.70;99.90;;;;;;5019362;28;20061;-56
2023/04/23 04:44:31;;;;;;;97.18;47.38;;;7.80;99.90;;;;;;5037314;28;20505;-56
2023/04/23 04:46:56;;;;;;;100.40;48.22;;;7.60;99.90;;;;;;5040221;28;20048;-56
2023/04/23 04:49:22;;;;;;;96.97;46.33;;;8.00;99.90;;;;;;5041036;28;20080;-56
2023/04/23 04:51:48;;;;;;;100.05;48.30;;;8.00;99.90;;;;;;5041107;28;20405;-56
2023/04/23 04:54:14;;;;;;;105.05;49.05;;;7.70;99.90;;;;;;5041251;28;20041;-56
2023/04/23 04:56:40;;;;;;;103.15;48.25;;;8.10;99.90;;;;;;5041796;28;20461;-57
2023/04/23 04:59:05;;;;;;;102.40;48.40;;;8.00;99.90;;;;;;5041646;28;20103;-56
2023/04/23 05:01:32;;;;;;;105.10;48.13;;;7.70;99.90;;;;;;5041001;28;20101;-56
2023/04/23 05:03:58;;;;;;;104.18;48.85;;;7.90;99.90;;;;;;5041519;28;20041;-56
2023/04/23 05:06:24;;;;;;;92.82;46.75;;;7.90;99.90;;;;;;5041142;28;20078;-57
2023/04/23 05:08:50;;;;;;;98.53;49.67;;;8.10;99.90;;;;;;5040278;28;20469;-56
2023/04/23 05:11:17;;;;;;;96.88;46.85;;;8.00;99.90;;;;;;5040863;28;20049;-56
2023/04/23 05:13:47;;;;;;;100.47;46.97;;;8.00;99.90;;;;;;5041052;28;20132;-57
2023/04/23 05:16:12;;;;;;;98.80;50.47;;;7.90;99.90;;;;;;5040542;28;20512;-56
2023/04/23 05:18:39;;;;;;;102.03;49.45;;;8.10;99.90;;;;;;5038826;28;20045;-56
2023/04/23 05:21:05;;;;;;;105.90;51.55;;;8.10;99.90;;;;;;5037435;28;20060;-56
2023/04/23 05:23:32;;;;;;;100.93;49.40;;;8.10;99.90;;;;;;5037662;28;20045;-56
2023/04/23 05:25:58;;;;;;;108.47;51.83;;;8.00;99.90;;;;;;5037047;28;20433;-56
2023/04/23 05:28:24;;;;;;;101.07;50.38;;;8.10;99.90;;;;;;5036457;28;20064;-56
2023/04/23 05:30:50;;;;;;;100.53;49.08;;;8.10;99.90;;;;;;5037073;28;20061;-57
2023/04/23 05:33:16;;;;;;;105.82;51.10;;;8.20;99.90;;;;;;5034818;28;20054;-56
2023/04/23 05:35:42;;;;;;;105.28;49.90;;;8.20;99.90;;;;;;5036468;28;20057;-56
2023/04/23 05:38:09;;;;;;;94.45;49.53;;;7.90;99.90;;;;;;5037292;28;20045;-57
2023/04/23 05:40:35;;;;;;;96.22;50.15;;;8.20;99.90;;;;;;5037380;28;20038;-57
2023/04/23 05:43:01;;;;;;;98.90;48.72;;;8.00;99.90;;;;;;5037004;28;20088;-57
2023/04/23 05:45:27;;;;;;;91.60;46.63;;;8.20;99.90;;;;;;5037116;28;20041;-57
2023/04/23 05:47:53;;;;;;;92.32;45.33;;;8.00;99.90;;;;;;5036579;28;20033;-56
2023/04/23 05:50:20;;;;;;;85.30;46.33;;;8.20;99.90;;;;;;5036619;28;20045;-57
2023/04/23 05:52:46;;;;;;;84.68;43.92;;;8.30;99.90;;;;;;5036481;28;20107;-56
2023/04/23 05:55:14;;;;;;;88.13;44.72;;;8.10;99.90;;;;;;5018197;28;20037;-56
2023/04/23 05:57:40;;;;;;;80.05;42.40;;;8.30;99.90;;;;;;5036860;28;20045;-56
2023/04/23 06:00:10;;;;;;;76.25;42.60;;;8.20;99.90;;;;;;5036832;28;20049;-56
2023/04/23 06:02:37;;;;;;;78.38;44.45;;;8.20;99.90;;;;;;5037026;28;20641;-56
2023/04/23 06:05:03;;;;;;;81.25;42.67;;;8.30;99.90;;;;;;5036969;28;20057;-56
2023/04/23 06:07:29;;;;;;;86.78;45.28;;;8.10;99.90;;;;;;5036390;28;20567;-56
2023/04/23 06:09:55;;;;;;;83.35;42.15;;;8.40;99.90;;;;;;5037030;28;20070;-56
2023/04/23 06:12:20;;;;;;;81.68;44.67;;;8.20;99.90;;;;;;5036750;28;20049;-56
2023/04/23 06:14:46;;;;;;;82.00;44.55;;;8.40;99.90;;;;;;5036527;28;20100;-56
2023/04/23 06:17:12;;;;;;;80.13;45.42;;;8.50;99.90;;;;;;5036347;28;20133;-56
2023/04/23 06:19:38;;;;;;;77.95;42.80;;;8.50;99.90;;;;;;5036386;28;20045;-57
2023/04/23 06:22:04;;;;;;;76.07;41.42;;;8.40;99.90;;;;;;5036796;28;20041;-56
2023/04/23 06:24:30;;;;;;;84.32;43.22;;;8.70;99.90;;;;;;5036667;28;20060;-56
2023/04/23 06:26:56;;;;;;;84.88;45.30;;;8.50;99.90;;;;;;5036541;28;20037;-57
2023/04/23 06:29:22;;;;;;;79.00;44.35;;;8.60;99.90;;;;;;5036577;28;20132;-57
2023/04/23 06:31:48;;;;;;;78.88;44.05;;;8.80;99.90;;;;;;5036033;28;20077;-57
2023/04/23 06:34:13;;;;;;;78.50;44.55;;;9.00;99.90;;;;;;5036170;28;20084;-56
2023/04/23 06:36:39;;;;;;;79.43;43.83;;;9.10;99.90;;;;;;5036542;28;20048;-57
2023/04/23 06:39:05;;;;;;;77.63;44.58;;;8.70;99.90;;;;;;5035920;28;20053;-56
2023/04/23 06:41:30;;;;;;;79.22;44.10;;;9.00;99.90;;;;;;5036067;28;20049;-56
2023/04/23 06:43:56;;;;;;;75.35;43.50;;;8.80;99.90;;;;;;5035964;28;20958;-57
2023/04/23 06:46:22;;;;;;;79.22;44.30;;;9.00;99.90;;;;;;5035877;28;20857;-57
2023/04/23 06:48:47;;;;;;;79.60;42.83;;;8.90;99.90;;;;;;5035734;28;20041;-57
2023/04/23 06:51:14;;;;;;;82.22;44.85;;;9.30;99.90;;;;;;5035734;28;20049;-57
2023/04/23 06:53:40;;;;;;;80.30;44.47;;;9.40;99.90;;;;;;5035793;28;20400;-56
2023/04/23 06:56:07;;;;;;;82.00;45.15;;;9.40;99.90;;;;;;5035404;28;20591;-56
2023/04/23 06:58:33;;;;;;;80.13;45.30;;;9.70;99.90;;;;;;5035779;28;20552;-56
2023/04/23 07:01:00;;;;;;;76.05;44.92;;;9.60;99.90;;;;;;5035456;28;20030;-58
2023/04/23 07:03:26;;;;;;;80.70;44.35;;;9.80;99.90;;;;;;5035406;28;20045;-56
2023/04/23 07:05:53;;;;;;;81.22;45.58;;;9.90;99.90;;;;;;5035601;28;20056;-57
2023/04/23 07:08:20;;;;;;;81.07;44.58;;;9.90;99.90;;;;;;5034325;28;20073;-57
2023/04/23 07:10:46;;;;;;;79.53;44.03;;;10.40;99.90;;;;;;5035843;28;20064;-57
2023/04/23 07:13:12;;;;;;;81.28;46.58;;;10.50;99.90;;;;;;5035697;28;20052;-57
2023/04/23 07:15:37;;;;;;;73.72;43.97;;;10.50;99.90;;;;;;5035697;28;20065;-56
2023/04/23 07:18:05;;;;;;;75.13;44.85;;;10.40;99.90;;;;;;5034864;28;20088;-56
2023/04/23 07:20:31;;;;;;;74.65;45.03;;;10.90;99.90;;;;;;5035519;28;20052;-57
2023/04/23 07:22:58;;;;;;;68.78;41.97;;;11.00;99.90;;;;;;5035503;28;20053;-57
2023/04/23 07:25:25;;;;;;;71.13;40.70;;;10.90;99.90;;;;;;5035491;28;20053;-57
2023/04/23 07:27:52;;;;;;;68.20;41.53;;;10.80;99.90;;;;;;5035575;28;20104;-57
2023/04/23 07:30:18;;;;;;;73.47;43.97;;;11.00;99.90;;;;;;5034637;28;20052;-57
2023/04/23 07:32:43;;;;;;;67.65;42.03;;;10.80;99.90;;;;;;5035093;28;20046;-57
2023/04/23 07:35:10;;;;;;;68.53;40.33;;;10.80;99.90;;;;;;5035279;28;20105;-57
2023/04/23 07:37:36;;;;;;;67.05;41.30;;;11.10;99.90;;;;;;5035113;28;20042;-56
2023/04/23 07:40:04;;;;;;;67.80;41.58;;;10.90;99.90;;;;;;5035152;28;20051;-57
2023/04/23 07:42:30;;;;;;;63.58;39.22;;;11.00;99.90;;;;;;5034638;28;20053;-57
2023/04/23 07:44:56;;;;;;;64.00;40.05;;;11.20;99.90;;;;;;5034867;28;20041;-57
2023/04/23 07:47:22;;;;;;;63.53;39.47;;;11.20;99.90;;;;;;5034556;28;20110;-57
2023/04/23 07:49:47;;;;;;;64.80;40.70;;;11.40;99.90;;;;;;5035057;28;20049;-57
2023/04/23 07:52:14;;;;;;;65.60;41.78;;;11.50;99.90;;;;;;5034959;28;20475;-56
2023/04/23 07:54:40;;;;;;;70.32;41.65;;;11.30;99.90;;;;;;5033762;28;20504;-56
2023/04/23 07:57:05;;;;;;;61.42;38.75;;;11.50;99.90;;;;;;5016932;28;20046;-56
2023/04/23 07:59:31;;;;;;;64.15;40.47;;;11.70;99.90;;;;;;5034388;28;20060;-57
2023/04/23 08:01:57;;;;;;;59.85;37.75;;;11.50;99.90;;;;;;5034455;28;20133;-57
2023/04/23 08:04:23;;;;;;;59.40;37.70;;;11.30;99.90;;;;;;5034580;28;20041;-56
2023/04/23 08:06:48;;;;;;;57.53;37.50;;;11.40;99.90;;;;;;5034369;28;20253;-57
2023/04/23 08:09:14;;;;;;;60.55;38.15;;;11.70;99.90;;;;;;5034654;28;20104;-58
2023/04/23 08:11:40;;;;;;;57.95;36.47;;;11.70;99.90;;;;;;5034754;28;20080;-57
2023/04/23 08:14:06;;;;;;;58.42;34.83;;;11.80;99.90;;;;;;5034554;28;20072;-57
2023/04/23 08:16:32;;;;;;;54.47;36.53;;;12.10;99.90;;;;;;5034170;28;20553;-57
2023/04/23 08:18:58;;;;;;;51.10;34.65;;;11.90;99.90;;;;;;5033982;28;20057;-57
2023/04/23 08:21:24;;;;;;;54.05;36.13;;;12.10;99.90;;;;;;5034280;28;20457;-57
2023/04/23 08:23:50;;;;;;;50.78;33.13;;;12.20;99.90;;;;;;5034483;28;20045;-57
2023/04/23 08:26:16;;;;;;;47.70;30.48;;;12.10;99.90;;;;;;5034701;28;20109;-57
2023/04/23 08:28:41;;;;;;;51.63;33.33;;;12.30;99.90;;;;;;5033182;28;20041;-57
2023/04/23 08:31:08;;;;;;;45.53;31.48;;;12.40;99.90;;;;;;5033838;28;20105;-57
2023/04/23 08:33:34;;;;;;;46.80;30.48;;;12.70;99.90;;;;;;5033960;28;21139;-57
2023/04/23 08:36:00;;;;;;;47.92;31.02;;;12.50;99.90;;;;;;5033992;28;20076;-57
2023/04/23 08:38:26;;;;;;;49.25;32.47;;;12.70;99.90;;;;;;5030408;28;20073;-56
2023/04/23 08:40:56;;;;;;;48.80;29.60;;;12.60;99.90;;;;;;5033939;28;20615;-56
2023/04/23 08:43:35;;;;;;;42.03;28.05;;;12.80;99.90;;;;;;5033383;28;20101;-57
2023/04/23 08:46:05;;;;;;;40.90;26.92;;;12.90;99.90;;;;;;5033373;28;20052;-57
2023/04/23 08:48:33;;;;;;;39.65;28.45;;;13.00;99.90;;;;;;5033726;28;20073;-57
2023/04/23 08:51:01;;;;;;;48.63;31.08;;;13.20;99.90;;;;;;5033327;28;20046;-57
2023/04/23 08:53:27;;;;;;;45.78;28.83;;;13.00;99.90;;;;;;5034122;28;20053;-57
2023/04/23 08:55:58;;;;;;;43.60;28.92;;;13.30;99.90;;;;;;5033481;28;20049;-57
2023/04/23 08:58:26;;;;;;;45.85;28.98;;;13.30;99.90;;;;;;5033948;28;20121;-57
2023/04/23 09:00:53;;;;;;;41.53;27.08;;;13.30;99.90;;;;;;5015745;28;20046;-57
2023/04/23 09:03:20;;;;;;;40.40;26.05;;;13.40;99.90;;;;;;5033775;28;20080;-57
2023/04/23 09:05:46;;;;;;;36.80;25.38;;;13.50;99.90;;;;;;5015998;28;20049;-57
2023/04/23 09:08:12;;;;;;;39.78;25.83;;;13.40;99.90;;;;;;5033024;28;20061;-57
2023/04/23 09:10:41;;;;;;;38.78;25.00;;;13.60;99.90;;;;;;5033977;28;20045;-57
2023/04/23 09:13:07;;;;;;;34.78;23.05;;;13.50;99.90;;;;;;5033826;28;20050;-56
2023/04/23 09:15:38;;;;;;;35.00;22.92;;;13.40;99.90;;;;;;5033966;28;20059;-57
2023/04/23 09:18:04;;;;;;;33.57;22.77;;;13.30;99.90;;;;;;5033140;28;20076;-57
2023/04/23 09:20:30;;;;;;;33.30;22.50;;;13.40;99.90;;;;;;5033940;28;20056;-57
2023/04/23 09:22:56;;;;;;;34.35;21.75;;;13.50;99.90;;;;;;5033779;28;20464;-57
2023/04/23 09:25:23;;;;;;;32.30;20.80;;;13.70;99.90;;;;;;5033487;28;20100;-57
2023/04/23 09:27:51;;;;;;;40.28;21.67;;;14.10;99.90;;;;;;5033973;28;20513;-57
2023/04/23 09:30:18;;;;;;;33.35;21.73;;;14.10;99.90;;;;;;5033229;28;20052;-57
2023/04/23 09:32:45;;;;;;;36.40;23.10;;;13.90;99.90;;;;;;5036000;28;20103;-56
2023/04/23 09:35:14;;;;;;;30.20;20.35;;;13.90;99.90;;;;;;5037321;28;20049;-57
2023/04/23 09:37:48;;;;;;;27.38;19.23;;;14.20;99.90;;;;;;5037306;28;20110;-57
2023/04/23 09:40:16;;;;;;;26.40;16.80;;;14.10;99.90;;;;;;5037386;28;20034;-57
2023/04/23 09:42:48;;;;;;;25.60;16.80;;;14.30;99.90;;;;;;5036845;28;20128;-57
2023/04/23 09:45:14;;;;;;;22.42;15.35;;;14.30;99.90;;;;;;5037406;28;20413;-57
2023/04/23 09:47:55;;;;;;;26.20;16.50;;;14.20;99.90;;;;;;5037210;28;20049;-57
2023/04/23 09:50:38;;;;;;;21.83;15.60;;;14.40;99.90;;;;;;5037088;28;20045;-57
2023/04/23 09:53:08;;;;;;;22.15;16.23;;;14.80;99.90;;;;;;5037279;28;20060;-57
2023/04/23 09:55:38;;;;;;;25.13;16.23;;;14.90;99.90;;;;;;5036464;28;20037;-57
2023/04/23 09:58:12;;;;;;;22.88;15.45;;;14.70;99.90;;;;;;5037012;28;20063;-58
2023/04/23 10:00:38;;;;;;;22.48;15.45;;;14.60;99.90;;;;;;5019130;28;20623;-57
2023/04/23 10:03:07;;;;;;;26.42;17.85;;;14.40;99.90;;;;;;5037223;28;20068;-57
2023/04/23 10:05:41;;;;;;;27.30;17.08;;;14.30;99.90;;;;;;5036882;28;20473;-57
2023/04/23 10:08:07;;;;;;;25.92;16.60;;;14.50;99.90;;;;;;5036083;28;20065;-57
2023/04/23 10:10:34;;;;;;;22.73;14.57;;;14.50;99.90;;;;;;5036754;28;20048;-57
2023/04/23 10:13:00;;;;;;;19.95;11.70;;;14.60;99.90;;;;;;5036279;28;20057;-57
2023/04/23 10:15:26;;;;;;;19.30;12.25;;;14.90;99.90;;;;;;5036582;28;20103;-57
2023/04/23 10:17:54;;;;;;;19.73;12.95;;;15.20;99.90;;;;;;5036623;28;20164;-56
2023/04/23 10:20:21;;;;;;;20.13;10.88;;;15.40;99.90;;;;;;5036150;28;20132;-56
2023/04/23 10:22:48;;;;;;;19.55;11.23;;;15.50;99.90;;;;;;5036446;28;20041;-56
2023/04/23 10:25:14;;;;;;;20.17;11.60;;;15.50;99.90;;;;;;5036419;28;20584;-57
2023/04/23 10:27:46;;;;;;;17.02;10.70;;;15.40;99.90;;;;;;5037799;28;20061;-57
2023/04/23 10:30:13;;;;;;;16.90;8.75;;;15.30;99.90;;;;;;5039293;28;20068;-57
2023/04/23 10:32:39;;;;;;;15.88;8.65;;;15.40;99.90;;;;;;5039692;28;20052;-57
2023/04/23 10:35:07;;;;;;;15.63;7.25;;;15.40;99.90;;;;;;5039936;28;20052;-57
2023/04/23 10:37:34;;;;;;;15.15;7.00;;;15.20;99.90;;;;;;5039368;28;20042;-57
2023/04/23 10:40:13;;;;;;;13.30;7.68;;;15.10;99.90;;;;;;5039335;28;20118;-57
2023/04/23 10:42:48;;;;;;;14.32;8.10;;;15.50;99.90;;;;;;5039103;28;20046;-57
2023/04/23 10:45:16;;;;;;;15.55;7.53;;;15.90;99.90;;;;;;5038903;28;20068;-56
2023/04/23 10:47:43;;;;;;;13.95;7.28;;;16.00;99.90;;;;;;5039460;28;20041;-57
2023/04/23 10:50:19;;;;;;;14.02;7.43;;;16.00;99.90;;;;;;5039043;28;20079;-57
2023/04/23 10:52:52;;;;;;;15.00;7.35;;;16.10;99.90;;;;;;5038994;28;20072;-57
2023/04/23 10:55:20;;;;;;;12.90;6.50;;;16.30;99.90;;;;;;5038820;28;20037;-57
2023/04/23 10:57:59;;;;;;;12.48;6.72;;;16.50;99.90;;;;;;5039074;28;20053;-57
2023/04/23 11:00:40;;;;;;;16.38;7.32;;;16.70;99.90;;;;;;5038986;28;20052;-56
2023/04/23 11:03:37;;;;;;;11.95;6.25;;;16.90;99.90;;;;;;5039044;28;20065;-57
2023/04/23 11:06:04;;;;;;;15.23;5.85;;;16.90;99.90;;;;;;5037844;28;20548;-57
2023/04/23 11:08:31;;;;;;;11.15;4.95;;;17.00;99.90;;;;;;5037695;28;20060;-57
2023/04/23 11:10:58;;;;;;;12.40;4.82;;;16.90;99.90;;;;;;5037766;28;20037;-57
2023/04/23 11:13:25;;;;;;;11.60;5.40;;;17.10;99.90;;;;;;5037969;28;20069;-57
2023/04/23 11:16:20;;;;;;;10.68;4.95;;;17.30;99.90;;;;;;5037015;28;20100;-58
2023/04/23 11:19:06;;;;;;;13.43;4.03;;;17.00;99.90;;;;;;5020101;28;20135;-57
2023/04/23 11:21:57;;;;;;;13.52;4.40;;;17.10;99.90;;;;;;5038318;28;20105;-57
2023/04/23 11:24:25;;;;;;;10.50;3.40;;;17.30;99.90;;;;;;5038487;28;20046;-57
2023/04/23 11:26:53;;;;;;;11.10;3.42;;;17.10;99.90;;;;;;5020760;28;20053;-57
2023/04/23 11:29:24;;;;;;;12.77;3.50;;;17.30;99.90;;;;;;5038651;28;20113;-57
2023/04/23 11:31:51;;;;;;;13.20;4.47;;;17.30;99.90;;;;;;5038165;28;20042;-57
2023/04/23 11:34:17;;;;;;;10.98;3.40;;;17.20;99.90;;;;;;5037962;28;20051;-57
2023/04/23 11:36:43;;;;;;;12.90;3.92;;;17.00;99.90;;;;;;5037988;28;20069;-56
2023/04/23 11:39:09;;;;;;;10.82;3.47;;;16.80;99.90;;;;;;5038299;28;20052;-57
2023/04/23 11:41:38;;;;;;;8.02;2.60;;;16.60;99.90;;;;;;5037649;28;20068;-57
2023/04/23 11:44:04;;;;;;;11.20;2.63;;;16.60;99.90;;;;;;5037255;28;20053;-57
2023/04/23 11:46:30;;;;;;;10.18;2.58;;;16.60;99.90;;;;;;5037097;28;20462;-57
2023/04/23 11:48:55;;;;;;;10.45;2.83;;;16.70;99.90;;;;;;5037131;28;20041;-57
2023/04/23 11:51:28;;;;;;;8.05;2.60;;;17.10;99.90;;;;;;5037690;28;20200;-57
2023/04/23 11:53:53;;;;;;;9.50;3.25;;;17.20;99.90;;;;;;5037929;28;20041;-57
2023/04/23 11:56:19;;;;;;;10.13;3.65;;;17.30;99.90;;;;;;5037570;28;20106;-57
2023/04/23 11:58:45;;;;;;;10.45;3.30;;;17.40;99.90;;;;;;5037846;28;20037;-57
2023/04/23 12:01:12;;;;;;;9.90;2.47;;;17.60;99.90;;;;;;5037831;28;20583;-57
2023/04/23 12:03:38;;;;;;;7.72;2.70;;;17.70;99.90;;;;;;5037864;28;20053;-57
2023/04/23 12:06:04;;;;;;;7.80;2.25;;;17.80;99.90;;;;;;5037664;28;20033;-57
2023/04/23 12:08:34;;;;;;;7.80;2.08;;;18.10;99.90;;;;;;5037242;28;20038;-56
2023/04/23 12:11:04;;;;;;;8.13;2.08;;;17.90;99.90;;;;;;5037593;28;20049;-57
2023/04/23 12:13:34;;;;;;;6.18;2.00;;;18.00;99.90;;;;;;5037827;28;20096;-58
2023/04/23 12:16:03;;;;;;;10.52;2.10;;;18.00;99.90;;;;;;5037858;28;20101;-57
2023/04/23 12:18:38;;;;;;;8.35;2.00;;;18.10;99.90;;;;;;5037775;28;20084;-57
2023/04/23 12:21:08;;;;;;;6.72;1.92;;;18.00;99.90;;;;;;5037297;28;20053;-57
2023/04/23 12:23:36;;;;;;;15.65;2.15;;;17.70;99.90;;;;;;5036642;28;20065;-57
2023/04/23 12:26:02;;;;;;;6.53;1.77;;;17.80;99.90;;;;;;5019279;28;20093;-58
2023/04/23 12:28:28;;;;;;;8.00;1.90;;;17.80;99.90;;;;;;5036155;28;20038;-57
2023/04/23 12:30:59;;;;;;;7.93;2.08;;;17.80;99.90;;;;;;5037654;28;20061;-57
2023/04/23 12:33:28;;;;;;;6.13;1.60;;;17.60;99.90;;;;;;5037524;28;20037;-57